sensor_id;sensor_type;location;lat;lon;timestamp;temperature;humidity
43607;DHT22;29197;44.788;10.366;2022-09-03T00:00:22;24.20;99.90
43607;DHT22;29197;44.788;10.366;2022-09-03T00:03:16;24.20;99.90
43607;DHT22;29197;44.788;10.366;2022-09-03T00:06:11;24.20;99.90
43607;DHT22;29197;44.788;10.366;2022-09-03T00:09:06;24.20;99.90
43607;DHT22;29197;44.788;10.366;2022-09-03T00:12:01;24.20;99.90
43607;DHT22;29197;44.788;10.366;2022-09-03T00:14:59;24.30;99.90
43607;DHT22;29197;44.788;10.366;2022-09-03T00:17:53;24.30;99.90
43607;DHT22;29197;44.788;10.366;2022-09-03T00:20:45;24.40;99.90
43607;DHT22;29197;44.788;10.366;2022-09-03T00:23:39;24.40;99.90
43607;DHT22;29197;44.788;10.366;2022-09-03T00:26:32;24.40;99.90
43607;DHT22;29197;44.788;10.366;2022-09-03T00:29:26;24.50;99.90
43607;DHT22;29197;44.788;10.366;2022-09-03T00:32:20;24.50;99.90
43607;DHT22;29197;44.788;10.366;2022-09-03T00:35:15;24.50;99.90
43607;DHT22;29197;44.788;10.366;2022-09-03T00:38:07;24.40;99.90
43607;DHT22;29197;44.788;10.366;2022-09-03T00:41:05;24.40;99.90
43607;DHT22;29197;44.788;10.366;2022-09-03T00:44:12;24.40;99.90
43607;DHT22;29197;44.788;10.366;2022-09-03T00:47:11;24.40;99.90
43607;DHT22;29197;44.788;10.366;2022-09-03T00:50:10;24.40;99.90
43607;DHT22;29197;44.788;10.366;2022-09-03T00:53:12;24.30;99.90
43607;DHT22;29197;44.788;10.366;2022-09-03T00:56:11;24.20;99.90
43607;DHT22;29197;44.788;10.366;2022-09-03T00:59:25;24.10;99.90
43607;DHT22;29197;44.788;10.366;2022-09-03T01:02:28;24.10;99.90
43607;DHT22;29197;44.788;10.366;2022-09-03T01:05:31;24.10;99.90
43607;DHT22;29197;44.788;10.366;2022-09-03T01:08:36;24.10;99.90
43607;DHT22;29197;44.788;10.366;2022-09-03T01:11:38;24.10;99.90
43607;DHT22;29197;44.788;10.366;2022-09-03T01:14:46;24.00;99.90
43607;DHT22;29197;44.788;10.366;2022-09-03T01:20:42;23.90;99.90
43607;DHT22;29197;44.788;10.366;2022-09-03T01:24:02;23.80;99.90
43607;DHT22;29197;44.788;10.366;2022-09-03T01:52:15;23.10;99.90
43607;DHT22;29197;44.788;10.366;2022-09-03T01:55:17;23.20;99.90
43607;DHT22;29197;44.788;10.366;2022-09-03T01:58:14;23.30;99.90
43607;DHT22;29197;44.788;10.366;2022-09-03T02:01:11;23.40;99.90
43607;DHT22;29197;44.788;10.366;2022-09-03T02:04:16;23.50;99.90
43607;DHT22;29197;44.788;10.366;2022-09-03T02:07:06;23.60;99.90
43607;DHT22;29197;44.788;10.366;2022-09-03T02:09:57;23.70;99.90
43607;DHT22;29197;44.788;10.366;2022-09-03T02:12:51;23.80;99.90
43607;DHT22;29197;44.788;10.366;2022-09-03T02:15:44;23.80;99.90
43607;DHT22;29197;44.788;10.366;2022-09-03T02:18:37;23.80;99.90
43607;DHT22;29197;44.788;10.366;2022-09-03T02:21:33;23.70;99.90
43607;DHT22;29197;44.788;10.366;2022-09-03T02:24:24;23.70;99.90
43607;DHT22;29197;44.788;10.366;2022-09-03T02:27:15;23.70;99.90
43607;DHT22;29197;44.788;10.366;2022-09-03T02:30:06;23.70;99.90
43607;DHT22;29197;44.788;10.366;2022-09-03T02:32:56;23.60;99.90
43607;DHT22;29197;44.788;10.366;2022-09-03T02:35:46;23.60;99.90
43607;DHT22;29197;44.788;10.366;2022-09-03T02:38:36;23.60;99.90
43607;DHT22;29197;44.788;10.366;2022-09-03T02:41:25;23.60;99.90
43607;DHT22;29197;44.788;10.366;2022-09-03T02:44:19;23.60;99.90
43607;DHT22;29197;44.788;10.366;2022-09-03T02:47:12;23.60;99.90
43607;DHT22;29197;44.788;10.366;2022-09-03T02:50:01;23.60;99.90
43607;DHT22;29197;44.788;10.366;2022-09-03T02:52:51;23.60;99.90
43607;DHT22;29197;44.788;10.366;2022-09-03T02:55:41;23.60;99.90
43607;DHT22;29197;44.788;10.366;2022-09-03T02:58:30;23.60;99.90
43607;DHT22;29197;44.788;10.366;2022-09-03T03:01:21;23.60;99.90
43607;DHT22;29197;44.788;10.366;2022-09-03T03:04:10;23.60;99.90
43607;DHT22;29197;44.788;10.366;2022-09-03T03:07:00;23.60;99.90
43607;DHT22;29197;44.788;10.366;2022-09-03T03:09:50;23.60;99.90
43607;DHT22;29197;44.788;10.366;2022-09-03T03:12:39;23.60;99.90
43607;DHT22;29197;44.788;10.366;2022-09-03T03:15:28;23.60;99.90
43607;DHT22;29197;44.788;10.366;2022-09-03T03:18:19;23.60;99.90
43607;DHT22;29197;44.788;10.366;2022-09-03T03:21:10;23.60;99.90
43607;DHT22;29197;44.788;10.366;2022-09-03T03:24:00;23.50;99.90
43607;DHT22;29197;44.788;10.366;2022-09-03T03:26:50;23.40;99.90
43607;DHT22;29197;44.788;10.366;2022-09-03T03:29:39;23.30;99.90
43607;DHT22;29197;44.788;10.366;2022-09-03T03:32:28;23.30;99.90
43607;DHT22;29197;44.788;10.366;2022-09-03T03:35:19;23.20;99.90
43607;DHT22;29197;44.788;10.366;2022-09-03T03:38:09;23.20;99.90
43607;DHT22;29197;44.788;10.366;2022-09-03T03:41:06;23.20;99.90
43607;DHT22;29197;44.788;10.366;2022-09-03T03:43:56;23.20;99.90
43607;DHT22;29197;44.788;10.366;2022-09-03T03:46:45;23.20;99.90
43607;DHT22;29197;44.788;10.366;2022-09-03T03:49:34;23.30;99.90
43607;DHT22;29197;44.788;10.366;2022-09-03T03:52:25;23.30;99.90
43607;DHT22;29197;44.788;10.366;2022-09-03T03:55:15;23.20;99.90
43607;DHT22;29197;44.788;10.366;2022-09-03T03:58:06;23.20;99.90
43607;DHT22;29197;44.788;10.366;2022-09-03T04:00:55;23.00;99.90
43607;DHT22;29197;44.788;10.366;2022-09-03T04:03:44;22.80;99.90
43607;DHT22;29197;44.788;10.366;2022-09-03T04:06:33;22.70;99.90
43607;DHT22;29197;44.788;10.366;2022-09-03T04:09:24;22.70;99.90
43607;DHT22;29197;44.788;10.366;2022-09-03T04:12:13;22.60;99.90
43607;DHT22;29197;44.788;10.366;2022-09-03T04:15:03;22.50;99.90
43607;DHT22;29197;44.788;10.366;2022-09-03T04:17:53;22.50;99.90
43607;DHT22;29197;44.788;10.366;2022-09-03T04:20:43;22.50;99.90
43607;DHT22;29197;44.788;10.366;2022-09-03T04:23:33;22.50;99.90
43607;DHT22;29197;44.788;10.366;2022-09-03T04:26:26;22.50;99.90
43607;DHT22;29197;44.788;10.366;2022-09-03T04:29:18;22.50;99.90
43607;DHT22;29197;44.788;10.366;2022-09-03T04:32:08;22.50;99.90
43607;DHT22;29197;44.788;10.366;2022-09-03T04:35:15;22.50;99.90
43607;DHT22;29197;44.788;10.366;2022-09-03T04:38:04;22.50;99.90
43607;DHT22;29197;44.788;10.366;2022-09-03T04:40:53;22.50;99.90
43607;DHT22;29197;44.788;10.366;2022-09-03T04:43:45;22.70;99.90
43607;DHT22;29197;44.788;10.366;2022-09-03T04:46:38;22.80;99.90
43607;DHT22;29197;44.788;10.366;2022-09-03T04:49:27;22.90;99.90
43607;DHT22;29197;44.788;10.366;2022-09-03T04:52:16;22.70;99.90
43607;DHT22;29197;44.788;10.366;2022-09-03T04:55:07;22.70;99.90
43607;DHT22;29197;44.788;10.366;2022-09-03T04:57:58;22.70;99.90
43607;DHT22;29197;44.788;10.366;2022-09-03T05:00:49;22.80;99.90
43607;DHT22;29197;44.788;10.366;2022-09-03T05:03:38;22.90;99.90
43607;DHT22;29197;44.788;10.366;2022-09-03T05:06:29;22.90;99.90
43607;DHT22;29197;44.788;10.366;2022-09-03T05:09:18;23.00;99.90
43607;DHT22;29197;44.788;10.366;2022-09-03T05:12:08;23.00;99.90
43607;DHT22;29197;44.788;10.366;2022-09-03T05:14:57;23.10;99.90
43607;DHT22;29197;44.788;10.366;2022-09-03T05:17:48;23.10;99.90
43607;DHT22;29197;44.788;10.366;2022-09-03T05:20:39;23.10;99.90
43607;DHT22;29197;44.788;10.366;2022-09-03T05:23:28;23.20;99.90
43607;DHT22;29197;44.788;10.366;2022-09-03T05:26:25;23.20;99.90
43607;DHT22;29197;44.788;10.366;2022-09-03T05:29:15;23.20;99.90
43607;DHT22;29197;44.788;10.366;2022-09-03T05:32:06;23.10;99.90
43607;DHT22;29197;44.788;10.366;2022-09-03T05:34:57;23.10;99.90
43607;DHT22;29197;44.788;10.366;2022-09-03T05:37:46;23.00;99.90
43607;DHT22;29197;44.788;10.366;2022-09-03T05:40:36;23.00;99.90
43607;DHT22;29197;44.788;10.366;2022-09-03T05:43:26;23.00;99.90
43607;DHT22;29197;44.788;10.366;2022-09-03T05:46:15;23.10;99.90
43607;DHT22;29197;44.788;10.366;2022-09-03T05:49:06;23.10;99.90
43607;DHT22;29197;44.788;10.366;2022-09-03T05:51:57;23.20;99.90
43607;DHT22;29197;44.788;10.366;2022-09-03T05:54:46;23.20;99.90
43607;DHT22;29197;44.788;10.366;2022-09-03T05:57:35;23.20;99.90
43607;DHT22;29197;44.788;10.366;2022-09-03T06:00:26;23.20;99.90
43607;DHT22;29197;44.788;10.366;2022-09-03T06:03:15;23.30;99.90
43607;DHT22;29197;44.788;10.366;2022-09-03T06:06:05;23.30;99.90
43607;DHT22;29197;44.788;10.366;2022-09-03T06:08:57;23.30;99.90
43607;DHT22;29197;44.788;10.366;2022-09-03T06:11:47;23.20;99.90
43607;DHT22;29197;44.788;10.366;2022-09-03T06:14:39;23.10;99.90
43607;DHT22;29197;44.788;10.366;2022-09-03T06:17:27;23.00;99.90
43607;DHT22;29197;44.788;10.366;2022-09-03T06:20:16;22.70;99.90
43607;DHT22;29197;44.788;10.366;2022-09-03T06:23:06;22.60;99.90
43607;DHT22;29197;44.788;10.366;2022-09-03T06:26:04;22.50;99.90
43607;DHT22;29197;44.788;10.366;2022-09-03T06:28:54;22.40;99.90
43607;DHT22;29197;44.788;10.366;2022-09-03T06:31:44;22.40;99.90
43607;DHT22;29197;44.788;10.366;2022-09-03T06:34:35;22.40;99.90
43607;DHT22;29197;44.788;10.366;2022-09-03T06:37:24;22.30;99.90
43607;DHT22;29197;44.788;10.366;2022-09-03T06:40:14;22.30;99.90
43607;DHT22;29197;44.788;10.366;2022-09-03T06:43:10;22.20;99.90
43607;DHT22;29197;44.788;10.366;2022-09-03T06:46:01;22.20;99.90
43607;DHT22;29197;44.788;10.366;2022-09-03T06:48:52;22.30;99.90
43607;DHT22;29197;44.788;10.366;2022-09-03T06:51:42;22.40;99.90
43607;DHT22;29197;44.788;10.366;2022-09-03T06:54:31;22.40;99.90
43607;DHT22;29197;44.788;10.366;2022-09-03T06:57:21;22.50;99.90
43607;DHT22;29197;44.788;10.366;2022-09-03T07:00:13;22.60;99.90
43607;DHT22;29197;44.788;10.366;2022-09-03T07:03:03;22.80;99.90
43607;DHT22;29197;44.788;10.366;2022-09-03T07:05:53;22.90;99.90
43607;DHT22;29197;44.788;10.366;2022-09-03T07:08:47;22.90;99.90
43607;DHT22;29197;44.788;10.366;2022-09-03T07:11:37;23.00;99.90
43607;DHT22;29197;44.788;10.366;2022-09-03T07:14:34;22.90;99.90
43607;DHT22;29197;44.788;10.366;2022-09-03T07:17:24;22.90;99.90
43607;DHT22;29197;44.788;10.366;2022-09-03T07:20:13;22.90;99.90
43607;DHT22;29197;44.788;10.366;2022-09-03T07:23:02;22.80;99.90
43607;DHT22;29197;44.788;10.366;2022-09-03T07:25:53;22.90;99.90
43607;DHT22;29197;44.788;10.366;2022-09-03T07:28:43;23.10;99.90
43607;DHT22;29197;44.788;10.366;2022-09-03T07:31:35;23.30;99.90
43607;DHT22;29197;44.788;10.366;2022-09-03T07:34:27;23.30;99.90
43607;DHT22;29197;44.788;10.366;2022-09-03T07:37:17;23.50;99.90
43607;DHT22;29197;44.788;10.366;2022-09-03T07:40:08;23.60;99.90
43607;DHT22;29197;44.788;10.366;2022-09-03T07:42:57;23.50;99.90
43607;DHT22;29197;44.788;10.366;2022-09-03T07:45:50;23.50;99.90
43607;DHT22;29197;44.788;10.366;2022-09-03T07:48:41;23.40;99.90
43607;DHT22;29197;44.788;10.366;2022-09-03T07:51:32;23.40;99.90
43607;DHT22;29197;44.788;10.366;2022-09-03T07:54:22;23.50;99.90
43607;DHT22;29197;44.788;10.366;2022-09-03T07:57:13;23.50;99.90
43607;DHT22;29197;44.788;10.366;2022-09-03T08:00:04;23.60;99.90
43607;DHT22;29197;44.788;10.366;2022-09-03T08:02:53;23.70;99.90
43607;DHT22;29197;44.788;10.366;2022-09-03T08:05:42;23.80;99.90
43607;DHT22;29197;44.788;10.366;2022-09-03T08:08:34;24.00;99.90
43607;DHT22;29197;44.788;10.366;2022-09-03T08:11:24;24.10;99.90
43607;DHT22;29197;44.788;10.366;2022-09-03T08:14:14;24.20;99.90
43607;DHT22;29197;44.788;10.366;2022-09-03T08:17:03;24.20;99.90
43607;DHT22;29197;44.788;10.366;2022-09-03T08:19:53;24.40;99.90
43607;DHT22;29197;44.788;10.366;2022-09-03T08:22:43;24.40;99.90
43607;DHT22;29197;44.788;10.366;2022-09-03T08:25:34;24.40;99.90
43607;DHT22;29197;44.788;10.366;2022-09-03T08:28:23;24.50;99.90
43607;DHT22;29197;44.788;10.366;2022-09-03T08:31:15;24.50;99.90
43607;DHT22;29197;44.788;10.366;2022-09-03T08:34:05;24.50;99.90
43607;DHT22;29197;44.788;10.366;2022-09-03T08:36:55;24.50;99.90
43607;DHT22;29197;44.788;10.366;2022-09-03T08:39:48;24.50;99.90
43607;DHT22;29197;44.788;10.366;2022-09-03T08:42:48;24.60;99.90
43607;DHT22;29197;44.788;10.366;2022-09-03T08:45:39;24.60;99.90
43607;DHT22;29197;44.788;10.366;2022-09-03T08:48:28;24.60;99.90
43607;DHT22;29197;44.788;10.366;2022-09-03T08:51:19;24.70;99.90
43607;DHT22;29197;44.788;10.366;2022-09-03T08:54:15;24.80;99.90
43607;DHT22;29197;44.788;10.366;2022-09-03T08:57:07;24.90;99.90
43607;DHT22;29197;44.788;10.366;2022-09-03T08:59:58;25.00;99.90
43607;DHT22;29197;44.788;10.366;2022-09-03T09:02:59;25.10;99.90
43607;DHT22;29197;44.788;10.366;2022-09-03T09:05:55;25.20;99.90
43607;DHT22;29197;44.788;10.366;2022-09-03T09:08:56;25.20;99.90
43607;DHT22;29197;44.788;10.366;2022-09-03T09:11:54;25.30;99.90
43607;DHT22;29197;44.788;10.366;2022-09-03T09:14:49;25.30;99.90
43607;DHT22;29197;44.788;10.366;2022-09-03T09:17:51;25.30;99.90
43607;DHT22;29197;44.788;10.366;2022-09-03T09:20:48;25.30;99.90
43607;DHT22;29197;44.788;10.366;2022-09-03T09:23:42;25.30;99.90
43607;DHT22;29197;44.788;10.366;2022-09-03T09:26:32;25.30;99.90
43607;DHT22;29197;44.788;10.366;2022-09-03T09:29:22;25.30;99.90
43607;DHT22;29197;44.788;10.366;2022-09-03T09:32:15;25.30;99.90
43607;DHT22;29197;44.788;10.366;2022-09-03T09:35:09;25.30;99.90
43607;DHT22;29197;44.788;10.366;2022-09-03T09:37:59;25.30;99.90
43607;DHT22;29197;44.788;10.366;2022-09-03T09:40:48;25.30;99.90
43607;DHT22;29197;44.788;10.366;2022-09-03T09:43:37;25.20;99.90
43607;DHT22;29197;44.788;10.366;2022-09-03T09:46:33;25.30;99.90
43607;DHT22;29197;44.788;10.366;2022-09-03T09:49:29;25.20;99.90
43607;DHT22;29197;44.788;10.366;2022-09-03T09:52:22;25.20;99.90
43607;DHT22;29197;44.788;10.366;2022-09-03T09:55:15;25.20;99.90
43607;DHT22;29197;44.788;10.366;2022-09-03T09:58:06;25.20;99.90
43607;DHT22;29197;44.788;10.366;2022-09-03T10:01:03;25.20;99.90
43607;DHT22;29197;44.788;10.366;2022-09-03T10:04:07;25.20;99.90
43607;DHT22;29197;44.788;10.366;2022-09-03T10:07:00;25.20;99.90
43607;DHT22;29197;44.788;10.366;2022-09-03T10:10:04;25.30;99.90
43607;DHT22;29197;44.788;10.366;2022-09-03T10:12:56;25.30;99.90
43607;DHT22;29197;44.788;10.366;2022-09-03T10:15:50;25.40;99.90
43607;DHT22;29197;44.788;10.366;2022-09-03T10:18:42;25.40;99.90
43607;DHT22;29197;44.788;10.366;2022-09-03T10:21:40;25.40;99.90
43607;DHT22;29197;44.788;10.366;2022-09-03T10:24:40;25.40;99.90
43607;DHT22;29197;44.788;10.366;2022-09-03T10:27:36;25.50;99.90
43607;DHT22;29197;44.788;10.366;2022-09-03T10:30:28;25.60;99.90
43607;DHT22;29197;44.788;10.366;2022-09-03T10:33:23;25.70;99.90
43607;DHT22;29197;44.788;10.366;2022-09-03T10:36:20;25.80;99.90
43607;DHT22;29197;44.788;10.366;2022-09-03T10:39:14;25.80;99.90
43607;DHT22;29197;44.788;10.366;2022-09-03T10:42:16;25.70;99.90
43607;DHT22;29197;44.788;10.366;2022-09-03T10:45:17;25.70;99.90
43607;DHT22;29197;44.788;10.366;2022-09-03T10:48:34;25.60;99.90
43607;DHT22;29197;44.788;10.366;2022-09-03T10:51:33;25.40;99.90
43607;DHT22;29197;44.788;10.366;2022-09-03T10:54:39;25.60;99.90
43607;DHT22;29197;44.788;10.366;2022-09-03T10:57:36;25.50;99.90
43607;DHT22;29197;44.788;10.366;2022-09-03T11:00:29;25.50;99.90
43607;DHT22;29197;44.788;10.366;2022-09-03T11:03:39;26.00;99.90
43607;DHT22;29197;44.788;10.366;2022-09-03T11:06:39;25.40;99.90
43607;DHT22;29197;44.788;10.366;2022-09-03T11:09:35;25.40;99.90
43607;DHT22;29197;44.788;10.366;2022-09-03T11:12:28;25.30;99.90
43607;DHT22;29197;44.788;10.366;2022-09-03T11:15:23;25.20;99.90
43607;DHT22;29197;44.788;10.366;2022-09-03T11:18:21;25.30;99.90
43607;DHT22;29197;44.788;10.366;2022-09-03T11:21:15;25.30;99.90
43607;DHT22;29197;44.788;10.366;2022-09-03T11:24:09;25.30;99.90
43607;DHT22;29197;44.788;10.366;2022-09-03T11:27:08;25.20;99.90
43607;DHT22;29197;44.788;10.366;2022-09-03T11:30:06;25.20;99.90
43607;DHT22;29197;44.788;10.366;2022-09-03T11:32:58;25.20;99.90
43607;DHT22;29197;44.788;10.366;2022-09-03T11:35:56;25.20;99.90
43607;DHT22;29197;44.788;10.366;2022-09-03T11:38:47;25.10;99.90
43607;DHT22;29197;44.788;10.366;2022-09-03T11:41:36;25.10;99.90
43607;DHT22;29197;44.788;10.366;2022-09-03T11:44:35;25.10;99.90
43607;DHT22;29197;44.788;10.366;2022-09-03T11:47:39;25.10;99.90
43607;DHT22;29197;44.788;10.366;2022-09-03T11:50:29;25.10;99.90
43607;DHT22;29197;44.788;10.366;2022-09-03T11:53:32;25.20;99.90
43607;DHT22;29197;44.788;10.366;2022-09-03T11:56:23;25.30;99.90
43607;DHT22;29197;44.788;10.366;2022-09-03T11:59:17;25.30;99.90
43607;DHT22;29197;44.788;10.366;2022-09-03T12:02:17;25.40;99.90
43607;DHT22;29197;44.788;10.366;2022-09-03T12:05:19;25.50;99.90
43607;DHT22;29197;44.788;10.366;2022-09-03T12:08:40;25.60;99.90
43607;DHT22;29197;44.788;10.366;2022-09-03T12:11:42;25.60;99.90
43607;DHT22;29197;44.788;10.366;2022-09-03T12:14:38;25.30;99.90
43607;DHT22;29197;44.788;10.366;2022-09-03T12:17:33;25.30;99.90
43607;DHT22;29197;44.788;10.366;2022-09-03T12:20:27;25.30;99.90
43607;DHT22;29197;44.788;10.366;2022-09-03T12:23:26;25.30;99.90
43607;DHT22;29197;44.788;10.366;2022-09-03T12:26:19;25.40;99.90
43607;DHT22;29197;44.788;10.366;2022-09-03T12:29:21;25.40;99.90
43607;DHT22;29197;44.788;10.366;2022-09-03T12:32:14;25.50;99.90
43607;DHT22;29197;44.788;10.366;2022-09-03T12:35:14;25.50;99.90
43607;DHT22;29197;44.788;10.366;2022-09-03T12:38:24;25.50;99.90
43607;DHT22;29197;44.788;10.366;2022-09-03T12:41:26;25.60;99.90
43607;DHT22;29197;44.788;10.366;2022-09-03T12:44:23;25.70;99.90
43607;DHT22;29197;44.788;10.366;2022-09-03T12:47:15;25.80;99.90
43607;DHT22;29197;44.788;10.366;2022-09-03T12:50:24;25.90;99.90
43607;DHT22;29197;44.788;10.366;2022-09-03T12:53:16;26.10;99.90
43607;DHT22;29197;44.788;10.366;2022-09-03T12:56:09;26.20;99.90
43607;DHT22;29197;44.788;10.366;2022-09-03T12:59:03;26.30;99.90
43607;DHT22;29197;44.788;10.366;2022-09-03T13:01:58;26.30;99.90
43607;DHT22;29197;44.788;10.366;2022-09-03T13:04:50;26.20;99.90
43607;DHT22;29197;44.788;10.366;2022-09-03T13:07:45;26.10;99.90
43607;DHT22;29197;44.788;10.366;2022-09-03T13:10:40;26.10;99.90
43607;DHT22;29197;44.788;10.366;2022-09-03T13:13:31;26.10;99.90
43607;DHT22;29197;44.788;10.366;2022-09-03T13:16:43;25.90;99.90
43607;DHT22;29197;44.788;10.366;2022-09-03T13:19:44;25.90;99.90
43607;DHT22;29197;44.788;10.366;2022-09-03T13:22:44;25.90;99.90
43607;DHT22;29197;44.788;10.366;2022-09-03T13:25:44;25.90;99.90
43607;DHT22;29197;44.788;10.366;2022-09-03T13:28:50;25.80;99.90
43607;DHT22;29197;44.788;10.366;2022-09-03T13:31:48;25.80;99.90
43607;DHT22;29197;44.788;10.366;2022-09-03T13:34:41;25.80;99.90
43607;DHT22;29197;44.788;10.366;2022-09-03T13:37:37;25.70;99.90
43607;DHT22;29197;44.788;10.366;2022-09-03T13:40:35;25.70;99.90
43607;DHT22;29197;44.788;10.366;2022-09-03T13:43:31;25.60;99.90
43607;DHT22;29197;44.788;10.366;2022-09-03T13:46:27;25.70;99.90
43607;DHT22;29197;44.788;10.366;2022-09-03T13:49:29;25.60;99.90
43607;DHT22;29197;44.788;10.366;2022-09-03T13:52:45;25.60;99.90
43607;DHT22;29197;44.788;10.366;2022-09-03T13:55:40;25.60;99.90
43607;DHT22;29197;44.788;10.366;2022-09-03T13:58:40;25.60;99.90
43607;DHT22;29197;44.788;10.366;2022-09-03T14:01:42;25.60;99.90
43607;DHT22;29197;44.788;10.366;2022-09-03T14:04:46;25.70;99.90
43607;DHT22;29197;44.788;10.366;2022-09-03T14:07:48;25.70;99.90
43607;DHT22;29197;44.788;10.366;2022-09-03T14:10:52;25.60;99.90
43607;DHT22;29197;44.788;10.366;2022-09-03T14:13:57;25.60;99.90
43607;DHT22;29197;44.788;10.366;2022-09-03T14:16:53;25.50;99.90
43607;DHT22;29197;44.788;10.366;2022-09-03T14:19:50;25.40;99.90
43607;DHT22;29197;44.788;10.366;2022-09-03T14:22:48;25.30;99.90
43607;DHT22;29197;44.788;10.366;2022-09-03T14:25:39;25.30;99.90
43607;DHT22;29197;44.788;10.366;2022-09-03T14:28:35;25.30;99.90
43607;DHT22;29197;44.788;10.366;2022-09-03T14:31:44;25.30;99.90
43607;DHT22;29197;44.788;10.366;2022-09-03T14:34:49;25.30;99.90
43607;DHT22;29197;44.788;10.366;2022-09-03T14:38:04;25.30;99.90
43607;DHT22;29197;44.788;10.366;2022-09-03T14:41:03;25.30;99.90
43607;DHT22;29197;44.788;10.366;2022-09-03T14:44:13;25.30;99.90
43607;DHT22;29197;44.788;10.366;2022-09-03T14:47:15;25.30;99.90
43607;DHT22;29197;44.788;10.366;2022-09-03T14:50:21;25.30;99.90
43607;DHT22;29197;44.788;10.366;2022-09-03T14:53:33;25.30;99.90
43607;DHT22;29197;44.788;10.366;2022-09-03T14:56:42;25.30;99.90
43607;DHT22;29197;44.788;10.366;2022-09-03T14:59:56;25.20;99.90
43607;DHT22;29197;44.788;10.366;2022-09-03T15:03:05;25.30;99.90
43607;DHT22;29197;44.788;10.366;2022-09-03T15:06:13;25.40;99.90
43607;DHT22;29197;44.788;10.366;2022-09-03T15:09:24;25.40;99.90
43607;DHT22;29197;44.788;10.366;2022-09-03T15:12:18;25.50;99.90
43607;DHT22;29197;44.788;10.366;2022-09-03T15:15:12;25.60;99.90
43607;DHT22;29197;44.788;10.366;2022-09-03T15:18:13;25.70;99.90
43607;DHT22;29197;44.788;10.366;2022-09-03T15:21:18;25.70;99.90
43607;DHT22;29197;44.788;10.366;2022-09-03T15:24:21;25.70;99.90
43607;DHT22;29197;44.788;10.366;2022-09-03T15:30:33;25.70;99.90
43607;DHT22;29197;44.788;10.366;2022-09-03T15:33:29;25.70;99.90
43607;DHT22;29197;44.788;10.366;2022-09-03T15:36:26;25.70;99.90
43607;DHT22;29197;44.788;10.366;2022-09-03T15:39:18;25.70;99.90
43607;DHT22;29197;44.788;10.366;2022-09-03T15:42:12;25.70;99.90
43607;DHT22;29197;44.788;10.366;2022-09-03T15:45:07;25.60;99.90
43607;DHT22;29197;44.788;10.366;2022-09-03T15:48:15;25.80;99.90
43607;DHT22;29197;44.788;10.366;2022-09-03T15:51:12;25.70;99.90
43607;DHT22;29197;44.788;10.366;2022-09-03T15:54:13;25.70;99.90
43607;DHT22;29197;44.788;10.366;2022-09-03T15:57:10;25.60;99.90
43607;DHT22;29197;44.788;10.366;2022-09-03T16:00:02;25.60;99.90
43607;DHT22;29197;44.788;10.366;2022-09-03T16:02:58;25.60;99.90
43607;DHT22;29197;44.788;10.366;2022-09-03T16:05:56;25.70;99.90
43607;DHT22;29197;44.788;10.366;2022-09-03T16:08:50;25.70;99.90
43607;DHT22;29197;44.788;10.366;2022-09-03T16:11:55;25.70;99.90
43607;DHT22;29197;44.788;10.366;2022-09-03T16:14:53;25.70;99.90
43607;DHT22;29197;44.788;10.366;2022-09-03T16:17:53;25.70;99.90
43607;DHT22;29197;44.788;10.366;2022-09-03T16:20:45;25.70;99.90
43607;DHT22;29197;44.788;10.366;2022-09-03T16:23:41;25.80;99.90
43607;DHT22;29197;44.788;10.366;2022-09-03T16:26:36;25.70;99.90
43607;DHT22;29197;44.788;10.366;2022-09-03T16:29:30;25.60;99.90
43607;DHT22;29197;44.788;10.366;2022-09-03T16:32:34;25.60;99.90
43607;DHT22;29197;44.788;10.366;2022-09-03T16:35:35;25.50;99.90
43607;DHT22;29197;44.788;10.366;2022-09-03T16:38:36;25.50;99.90
43607;DHT22;29197;44.788;10.366;2022-09-03T16:41:35;25.50;99.90
43607;DHT22;29197;44.788;10.366;2022-09-03T16:44:38;25.40;99.90
43607;DHT22;29197;44.788;10.366;2022-09-03T16:47:39;25.40;99.90
43607;DHT22;29197;44.788;10.366;2022-09-03T16:50:40;25.40;99.90
43607;DHT22;29197;44.788;10.366;2022-09-03T16:53:39;25.30;99.90
43607;DHT22;29197;44.788;10.366;2022-09-03T16:56:48;25.30;99.90
43607;DHT22;29197;44.788;10.366;2022-09-03T17:00:02;25.30;99.90
43607;DHT22;29197;44.788;10.366;2022-09-03T17:03:11;25.30;99.90
43607;DHT22;29197;44.788;10.366;2022-09-03T17:06:19;25.30;99.90
43607;DHT22;29197;44.788;10.366;2022-09-03T17:09:29;25.30;99.90
43607;DHT22;29197;44.788;10.366;2022-09-03T17:12:26;25.30;99.90
43607;DHT22;29197;44.788;10.366;2022-09-03T17:15:24;25.20;99.90
43607;DHT22;29197;44.788;10.366;2022-09-03T17:18:29;25.20;99.90
43607;DHT22;29197;44.788;10.366;2022-09-03T17:21:36;25.20;99.90
43607;DHT22;29197;44.788;10.366;2022-09-03T17:24:38;25.20;99.90
43607;DHT22;29197;44.788;10.366;2022-09-03T17:27:48;25.20;99.90
43607;DHT22;29197;44.788;10.366;2022-09-03T17:30:45;25.20;99.90
43607;DHT22;29197;44.788;10.366;2022-09-03T17:33:54;25.20;99.90
43607;DHT22;29197;44.788;10.366;2022-09-03T17:36:54;25.10;99.90
43607;DHT22;29197;44.788;10.366;2022-09-03T17:40:01;25.10;99.90
43607;DHT22;29197;44.788;10.366;2022-09-03T17:42:55;25.00;99.90
43607;DHT22;29197;44.788;10.366;2022-09-03T17:45:54;25.00;99.90
43607;DHT22;29197;44.788;10.366;2022-09-03T17:48:49;25.00;99.90
43607;DHT22;29197;44.788;10.366;2022-09-03T17:51:43;24.90;99.90
43607;DHT22;29197;44.788;10.366;2022-09-03T17:54:40;24.90;99.90
43607;DHT22;29197;44.788;10.366;2022-09-03T17:57:31;24.90;99.90
43607;DHT22;29197;44.788;10.366;2022-09-03T18:00:31;24.80;99.90
43607;DHT22;29197;44.788;10.366;2022-09-03T18:06:27;24.60;99.90
43607;DHT22;29197;44.788;10.366;2022-09-03T18:09:23;24.60;99.90
43607;DHT22;29197;44.788;10.366;2022-09-03T18:12:26;24.50;99.90
43607;DHT22;29197;44.788;10.366;2022-09-03T18:15:21;24.40;99.90
43607;DHT22;29197;44.788;10.366;2022-09-03T18:18:27;24.40;99.90
43607;DHT22;29197;44.788;10.366;2022-09-03T18:21:20;24.40;99.90
43607;DHT22;29197;44.788;10.366;2022-09-03T18:24:30;24.50;99.90
43607;DHT22;29197;44.788;10.366;2022-09-03T18:27:40;24.40;99.90
43607;DHT22;29197;44.788;10.366;2022-09-03T18:30:48;24.40;99.90
43607;DHT22;29197;44.788;10.366;2022-09-03T18:33:56;24.40;99.90
43607;DHT22;29197;44.788;10.366;2022-09-03T18:37:03;24.40;99.90
43607;DHT22;29197;44.788;10.366;2022-09-03T18:40:13;24.40;99.90
43607;DHT22;29197;44.788;10.366;2022-09-03T18:43:34;24.40;99.90
43607;DHT22;29197;44.788;10.366;2022-09-03T18:46:50;24.50;99.90